Time;durP1;ratioP1;P1;durP2;ratioP2;P2;SDS_P1;SDS_P2;PMS_P1;PMS_P2;Temp;Humidity;BMP_temperature;BMP_pressure;BME280_temperature;BME280_humidity;BME280_pressure;Samples;Min_cycle;Max_cycle;Signal;HPM_P1;HPM_P2
2022/03/17 00:00:29;;;;;;;40.23;28.37;;;7.30;99.90;;;;;;5024489;28;20267;-66
2022/03/17 00:02:55;;;;;;;44.33;28.57;;;7.30;99.90;;;;;;5024062;28;20210;-65
2022/03/17 00:05:20;;;;;;;41.80;28.43;;;7.40;99.90;;;;;;5024632;28;20703;-66
2022/03/17 00:07:46;;;;;;;44.40;29.30;;;7.30;99.90;;;;;;5024340;28;20190;-64
2022/03/17 00:10:14;;;;;;;41.93;27.97;;;7.30;99.90;;;;;;5024511;28;20340;-65
2022/03/17 00:12:41;;;;;;;42.27;28.33;;;7.20;99.90;;;;;;5024366;28;20238;-64
2022/03/17 00:15:08;;;;;;;43.43;27.57;;;7.20;99.90;;;;;;5024633;28;20179;-65
2022/03/17 00:17:34;;;;;;;40.60;27.93;;;7.20;99.90;;;;;;5021747;28;20586;-64
2022/03/17 00:19:59;;;;;;;42.20;27.40;;;7.10;99.90;;;;;;5025088;28;20230;-65
2022/03/17 00:22:24;;;;;;;39.07;27.80;;;7.10;99.90;;;;;;5024390;28;20203;-64
2022/03/17 00:24:50;;;;;;;44.17;27.67;;;7.20;99.90;;;;;;5024022;28;20975;-64
2022/03/17 00:27:15;;;;;;;42.67;28.53;;;7.20;99.90;;;;;;5024675;28;20202;-65
2022/03/17 00:29:41;;;;;;;43.57;29.30;;;7.20;99.90;;;;;;5020921;28;20292;-64
2022/03/17 00:32:08;;;;;;;43.57;29.23;;;7.30;99.90;;;;;;5024511;28;20659;-66
2022/03/17 00:35:35;;;;;;;43.07;28.50;;;7.20;99.90;;;;;;5018191;28;20230;-66
2022/03/17 00:37:19;;;;;;;42.83;28.53;;;7.10;99.90;;;;;;5022306;28;21042;-66
2022/03/17 00:39:45;;;;;;;39.90;27.20;;;7.10;99.90;;;;;;5020821;28;20195;-66
2022/03/17 00:42:10;;;;;;;42.67;27.20;;;7.00;99.90;;;;;;5023874;28;20270;-66
2022/03/17 00:44:36;;;;;;;45.93;28.97;;;7.10;99.90;;;;;;5002924;28;20725;-66
2022/03/17 00:47:01;;;;;;;44.67;26.63;;;7.00;99.90;;;;;;5023611;28;20555;-66
2022/03/17 00:49:27;;;;;;;44.10;28.07;;;7.00;99.90;;;;;;5019240;28;20191;-67
2022/03/17 00:51:52;;;;;;;42.90;28.87;;;7.00;99.90;;;;;;5023476;28;20655;-66
2022/03/17 00:54:18;;;;;;;44.83;27.30;;;6.90;99.90;;;;;;5021099;28;20195;-66
2022/03/17 00:56:43;;;;;;;43.30;28.77;;;6.90;99.90;;;;;;5023842;28;20184;-66
2022/03/17 00:59:08;;;;;;;43.67;27.60;;;6.80;99.90;;;;;;5020877;28;20196;-63
2022/03/17 01:01:35;;;;;;;40.30;28.17;;;6.80;99.90;;;;;;5024218;28;20631;-64
2022/03/17 01:04:00;;;;;;;41.30;26.83;;;6.80;99.90;;;;;;5011467;28;20282;-63
2022/03/17 01:06:26;;;;;;;43.20;28.33;;;6.80;99.90;;;;;;5004646;28;20184;-64
2022/03/17 01:08:51;;;;;;;43.20;27.67;;;6.80;99.90;;;;;;5015485;28;21036;-64
2022/03/17 01:11:17;;;;;;;42.90;29.67;;;6.80;99.90;;;;;;5028293;28;20618;-65
2022/03/17 01:13:43;;;;;;;45.83;29.60;;;7.00;99.90;;;;;;5017333;28;20765;-65
2022/03/17 01:16:08;;;;;;;44.03;28.20;;;6.80;99.90;;;;;;5007934;28;20207;-65
2022/03/17 01:18:34;;;;;;;39.67;27.70;;;6.80;99.90;;;;;;5013843;28;20187;-65
2022/03/17 01:21:00;;;;;;;38.07;27.77;;;6.70;99.90;;;;;;5027866;28;20198;-65
2022/03/17 01:23:25;;;;;;;45.80;28.67;;;6.70;99.90;;;;;;5019360;28;20204;-65
2022/03/17 01:25:51;;;;;;;47.13;31.20;;;6.80;99.90;;;;;;5007567;28;20275;-63
2022/03/17 01:28:16;;;;;;;49.07;29.17;;;6.90;99.90;;;;;;5011175;28;20202;-63
2022/03/17 01:30:42;;;;;;;44.47;29.77;;;6.80;99.90;;;;;;5014895;28;20195;-63
2022/03/17 01:33:07;;;;;;;44.63;28.53;;;6.70;99.90;;;;;;4998455;28;20270;-63
2022/03/17 01:35:33;;;;;;;50.10;29.10;;;6.70;99.90;;;;;;5021263;28;20187;-86
2022/03/17 01:37:58;;;;;;;45.83;30.77;;;6.60;99.90;;;;;;5027303;28;20208;-78
2022/03/17 01:40:24;;;;;;;41.43;28.57;;;6.70;99.90;;;;;;5017311;28;20615;-69
2022/03/17 01:42:49;;;;;;;42.20;29.10;;;6.70;99.90;;;;;;5020308;28;20224;-67
2022/03/17 01:45:16;;;;;;;42.20;27.87;;;6.60;99.90;;;;;;5023487;28;20515;-65
2022/03/17 01:47:43;;;;;;;39.83;27.20;;;6.70;99.90;;;;;;5020971;28;20751;-65
2022/03/17 01:50:12;;;;;;;42.93;28.20;;;6.90;99.90;;;;;;5022394;28;20175;-66
2022/03/17 01:52:39;;;;;;;45.30;29.83;;;6.80;99.90;;;;;;5019188;28;20203;-66
2022/03/17 01:55:06;;;;;;;44.40;28.13;;;6.70;99.90;;;;;;5022614;28;20193;-65
2022/03/17 01:57:32;;;;;;;42.03;27.17;;;6.80;99.90;;;;;;5025689;28;20187;-66
2022/03/17 01:59:59;;;;;;;41.40;29.23;;;6.80;99.90;;;;;;5019583;28;20200;-65
2022/03/17 02:02:25;;;;;;;43.93;29.53;;;6.70;99.90;;;;;;5023480;28;20215;-66
2022/03/17 02:04:51;;;;;;;48.07;31.73;;;6.80;99.90;;;;;;5016378;28;20277;-68
2022/03/17 02:07:17;;;;;;;47.83;30.47;;;6.70;99.90;;;;;;5023553;28;20187;-67
2022/03/17 02:09:44;;;;;;;46.87;31.77;;;6.60;99.90;;;;;;5011706;28;20205;-69
2022/03/17 02:15:01;;;;;;;42.63;29.60;;;6.60;99.90;;;;;;5022043;28;20226;-69
2022/03/17 02:17:30;;;;;;;42.20;28.83;;;6.60;99.90;;;;;;5015813;28;20196;-69
2022/03/17 02:19:58;;;;;;;45.40;30.70;;;6.70;99.90;;;;;;5013611;28;20207;-68
2022/03/17 02:22:24;;;;;;;42.00;28.33;;;6.60;99.90;;;;;;5022436;28;20234;-69
2022/03/17 02:27:46;;;;;;;46.07;31.87;;;6.60;99.90;;;;;;5025649;28;20225;-67
2022/03/17 02:30:16;;;;;;;41.37;29.30;;;6.70;99.90;;;;;;5022177;28;20534;-68
2022/03/17 02:32:43;;;;;;;44.70;29.53;;;6.60;99.90;;;;;;5017817;28;20196;-66
2022/03/17 02:35:11;;;;;;;49.63;32.63;;;6.60;99.90;;;;;;5025748;28;20298;-66
2022/03/17 02:37:37;;;;;;;47.97;33.27;;;6.60;99.90;;;;;;5017602;28;20676;-73
2022/03/17 02:40:05;;;;;;;49.87;32.00;;;6.50;99.90;;;;;;5011395;28;20200;-70
2022/03/17 02:42:31;;;;;;;49.43;31.97;;;6.40;99.90;;;;;;5019259;28;20292;-70
2022/03/17 02:44:58;;;;;;;49.47;31.30;;;6.40;99.90;;;;;;5011788;28;20200;-71
2022/03/17 02:47:24;;;;;;;44.00;28.63;;;6.50;99.90;;;;;;5011689;28;20665;-70
2022/03/17 02:49:50;;;;;;;48.43;33.27;;;6.40;99.90;;;;;;5011217;28;20286;-68
2022/03/17 02:52:15;;;;;;;43.83;29.13;;;6.30;99.90;;;;;;5015025;28;20204;-68
2022/03/17 02:54:41;;;;;;;47.33;30.77;;;6.30;99.90;;;;;;5007371;28;20245;-68
2022/03/17 02:57:07;;;;;;;46.63;31.87;;;6.30;99.90;;;;;;5009434;28;20192;-67
2022/03/17 02:59:32;;;;;;;46.27;32.13;;;6.20;99.90;;;;;;5015243;28;20215;-68
2022/03/17 03:01:58;;;;;;;50.10;32.23;;;6.10;99.90;;;;;;5015681;28;20200;-70
2022/03/17 03:04:23;;;;;;;51.70;32.97;;;6.30;99.90;;;;;;5005734;28;20204;-71
2022/03/17 03:06:49;;;;;;;48.33;32.73;;;6.30;99.90;;;;;;5010344;28;20195;-68
2022/03/17 03:09:14;;;;;;;46.30;32.77;;;6.30;99.90;;;;;;5023429;28;20550;-66
2022/03/17 03:11:40;;;;;;;43.67;30.53;;;6.30;99.90;;;;;;5021861;28;20188;-70
2022/03/17 03:14:09;;;;;;;49.87;33.23;;;6.30;99.90;;;;;;5018902;28;20204;-77
2022/03/17 03:16:35;;;;;;;50.73;35.03;;;6.20;99.90;;;;;;5018435;28;20198;-69
2022/03/17 03:19:01;;;;;;;47.80;34.30;;;6.10;99.90;;;;;;5013825;28;20720;-70
2022/03/17 03:21:26;;;;;;;50.90;33.67;;;6.00;99.90;;;;;;5009055;28;20199;-69
2022/03/17 03:23:52;;;;;;;53.63;35.63;;;6.00;99.90;;;;;;5013416;28;20572;-70
2022/03/17 03:26:17;;;;;;;51.87;33.93;;;5.90;99.90;;;;;;5009959;28;20219;-70
2022/03/17 03:28:43;;;;;;;49.17;33.33;;;6.00;99.90;;;;;;5004601;28;20218;-70
2022/03/17 03:31:08;;;;;;;50.77;35.07;;;6.00;99.90;;;;;;5006163;28;20181;-70
2022/03/17 03:33:34;;;;;;;54.00;34.30;;;6.00;99.90;;;;;;5013368;28;20626;-69
2022/03/17 03:38:44;;;;;;;55.30;36.10;;;6.00;99.90;;;;;;5010689;28;20304;-69
2022/03/17 03:41:09;;;;;;;54.03;35.37;;;6.10;99.90;;;;;;5016545;28;20235;-70
2022/03/17 03:43:35;;;;;;;52.77;35.23;;;6.20;99.90;;;;;;5016184;28;21056;-69
2022/03/17 03:46:00;;;;;;;54.83;35.00;;;6.20;99.90;;;;;;5019950;28;20346;-69
2022/03/17 03:48:26;;;;;;;49.80;35.50;;;6.00;99.90;;;;;;5012417;28;20265;-69
2022/03/17 03:50:51;;;;;;;59.20;37.80;;;5.90;99.90;;;;;;5014449;28;20188;-68
2022/03/17 03:53:17;;;;;;;50.97;36.43;;;5.90;99.90;;;;;;5004663;28;20212;-68
2022/03/17 03:55:42;;;;;;;54.80;36.10;;;6.00;99.90;;;;;;5008697;28;20887;-68
2022/03/17 03:58:08;;;;;;;55.93;38.23;;;6.00;99.90;;;;;;5004573;28;20203;-69
2022/03/17 04:00:33;;;;;;;51.73;35.37;;;6.00;99.90;;;;;;5021461;28;20202;-68
2022/03/17 04:03:03;;;;;;;54.77;35.23;;;5.90;99.90;;;;;;5012384;28;20308;-68
2022/03/17 04:05:29;;;;;;;49.10;36.53;;;5.90;99.90;;;;;;5010323;28;20191;-68
2022/03/17 04:07:56;;;;;;;51.80;38.00;;;5.90;99.90;;;;;;5004349;28;20631;-68
2022/03/17 04:10:23;;;;;;;55.93;35.67;;;5.90;99.90;;;;;;5014044;28;20202;-68
2022/03/17 04:12:48;;;;;;;53.90;36.27;;;5.90;99.90;;;;;;5013934;28;20212;-68
2022/03/17 04:15:14;;;;;;;56.63;36.87;;;6.00;99.90;;;;;;5005780;28;20223;-69
2022/03/17 04:17:39;;;;;;;53.03;36.00;;;5.90;99.90;;;;;;5007908;28;20205;-68
2022/03/17 04:20:09;;;;;;;54.23;37.10;;;5.90;99.90;;;;;;5005841;28;20204;-68
2022/03/17 04:22:34;;;;;;;55.17;36.60;;;5.90;99.90;;;;;;5004377;28;20216;-68
2022/03/17 04:25:00;;;;;;;58.93;35.90;;;5.80;99.90;;;;;;5013976;28;20227;-68
2022/03/17 04:27:25;;;;;;;50.37;35.27;;;5.80;99.90;;;;;;5014692;28;20680;-68
2022/03/17 04:29:51;;;;;;;52.50;35.07;;;5.90;99.90;;;;;;5017725;28;20194;-68
2022/03/17 04:32:16;;;;;;;53.63;36.43;;;5.90;99.90;;;;;;5015547;28;20716;-69
2022/03/17 04:34:42;;;;;;;55.23;37.57;;;5.90;99.90;;;;;;5009497;28;20195;-70
2022/03/17 04:37:07;;;;;;;52.47;34.60;;;5.90;99.90;;;;;;5007147;28;20283;-70
2022/03/17 04:39:33;;;;;;;59.60;38.27;;;5.80;99.90;;;;;;5005304;28;20741;-69
2022/03/17 04:41:58;;;;;;;56.17;37.63;;;5.80;99.90;;;;;;5009216;28;20246;-68
2022/03/17 04:44:24;;;;;;;54.47;36.63;;;5.90;99.90;;;;;;5017631;28;20179;-67
2022/03/17 04:46:50;;;;;;;57.43;37.30;;;5.90;99.90;;;;;;5018954;28;20206;-69
2022/03/17 04:49:16;;;;;;;55.33;38.27;;;5.90;99.90;;;;;;5020901;28;20270;-69
2022/03/17 04:51:41;;;;;;;51.23;36.43;;;5.90;99.90;;;;;;5016078;28;20218;-68
2022/03/17 04:54:07;;;;;;;53.73;36.07;;;5.90;99.90;;;;;;5012429;28;20788;-68
2022/03/17 04:56:32;;;;;;;58.83;38.60;;;5.90;99.90;;;;;;5023069;28;20572;-68
2022/03/17 04:58:58;;;;;;;55.07;39.40;;;5.90;99.90;;;;;;5011883;28;20680;-68
2022/03/17 05:01:23;;;;;;;56.40;36.53;;;5.90;99.90;;;;;;5020795;28;20718;-68
2022/03/17 05:03:49;;;;;;;57.03;38.50;;;6.00;99.90;;;;;;5012004;28;20797;-69
2022/03/17 05:06:15;;;;;;;60.73;37.03;;;5.90;99.90;;;;;;5021344;28;20273;-69
2022/03/17 05:08:41;;;;;;;56.70;36.23;;;5.90;99.90;;;;;;5011831;28;21015;-69
2022/03/17 05:11:09;;;;;;;58.00;39.20;;;5.90;99.90;;;;;;5013837;28;20197;-68
2022/03/17 05:13:35;;;;;;;54.70;37.83;;;5.90;99.90;;;;;;5018545;28;20192;-69
2022/03/17 05:16:01;;;;;;;64.90;39.57;;;6.00;99.90;;;;;;5018751;28;20195;-70
2022/03/17 05:18:26;;;;;;;58.53;40.20;;;5.90;99.90;;;;;;5021836;28;20265;-68
2022/03/17 05:20:52;;;;;;;53.77;37.53;;;6.00;99.90;;;;;;5017404;28;20616;-68
2022/03/17 05:23:19;;;;;;;61.87;40.63;;;5.90;99.90;;;;;;5002112;28;20883;-69
2022/03/17 05:25:47;;;;;;;56.23;38.80;;;5.90;99.90;;;;;;5017727;28;20306;-69
2022/03/17 05:28:13;;;;;;;58.23;39.93;;;5.90;99.90;;;;;;5015131;28;20195;-70
2022/03/17 05:30:40;;;;;;;56.30;40.17;;;5.90;99.90;;;;;;5017121;28;20203;-70
2022/03/17 05:33:07;;;;;;;56.87;40.13;;;5.90;99.90;;;;;;5021399;28;20230;-69
2022/03/17 05:35:33;;;;;;;60.63;39.93;;;5.90;99.90;;;;;;5017163;28;20211;-70
2022/03/17 05:38:00;;;;;;;59.63;39.87;;;6.00;99.90;;;;;;5024291;28;20195;-69
2022/03/17 05:40:26;;;;;;;56.97;39.50;;;6.10;99.90;;;;;;5006482;28;20207;-70
2022/03/17 05:42:54;;;;;;;59.27;39.77;;;6.00;99.90;;;;;;5008538;28;20208;-69
2022/03/17 05:45:21;;;;;;;63.97;40.47;;;6.00;99.90;;;;;;5017335;28;20207;-70
2022/03/17 05:47:49;;;;;;;63.03;43.40;;;5.90;99.90;;;;;;5027517;28;20183;-70
2022/03/17 05:50:20;;;;;;;63.43;42.83;;;6.00;99.90;;;;;;5018042;28;20219;-68
2022/03/17 05:52:46;;;;;;;61.90;42.60;;;6.10;99.90;;;;;;5012060;28;20512;-69
2022/03/17 05:55:14;;;;;;;61.63;41.13;;;6.00;99.90;;;;;;5016279;28;20208;-69
2022/03/17 05:57:42;;;;;;;66.03;42.30;;;6.00;99.90;;;;;;5011160;28;20191;-69
2022/03/17 06:00:10;;;;;;;61.33;42.33;;;5.90;99.90;;;;;;5015211;28;20250;-69
2022/03/17 06:02:37;;;;;;;57.10;40.33;;;5.90;99.90;;;;;;5016168;28;20266;-70
2022/03/17 06:05:03;;;;;;;64.13;42.53;;;5.90;99.90;;;;;;5005644;28;20204;-70
2022/03/17 06:07:44;;;;;;;64.53;41.63;;;6.00;99.90;;;;;;5025226;28;20242;-69
2022/03/17 06:10:11;;;;;;;63.37;44.00;;;6.00;99.90;;;;;;5012429;28;20303;-68
2022/03/17 06:12:38;;;;;;;67.33;44.20;;;6.00;99.90;;;;;;5017988;28;20191;-68
2022/03/17 06:15:04;;;;;;;68.77;44.73;;;5.90;99.90;;;;;;5006038;28;20286;-67
2022/03/17 06:17:41;;;;;;;64.37;42.23;;;6.00;99.90;;;;;;5012422;28;20291;-68
2022/03/17 06:20:09;;;;;;;65.80;45.50;;;5.90;99.90;;;;;;5007755;28;20208;-69
2022/03/17 06:22:37;;;;;;;65.53;43.33;;;5.90;99.90;;;;;;5010480;28;20324;-68
2022/03/17 06:25:02;;;;;;;66.27;44.40;;;6.00;99.90;;;;;;5009073;28;20223;-68
2022/03/17 06:27:28;;;;;;;67.80;45.57;;;6.10;99.90;;;;;;5016989;28;20211;-68
2022/03/17 06:29:53;;;;;;;69.40;43.33;;;6.10;99.90;;;;;;5017706;28;20302;-68
2022/03/17 06:32:19;;;;;;;62.10;43.83;;;6.20;99.90;;;;;;5016343;28;20685;-68
2022/03/17 06:34:44;;;;;;;70.97;44.83;;;6.10;99.90;;;;;;5005251;28;20207;-68
2022/03/17 06:37:11;;;;;;;64.37;42.60;;;6.20;99.90;;;;;;5023331;28;20195;-68
2022/03/17 06:39:36;;;;;;;64.33;46.17;;;6.20;99.90;;;;;;5007077;28;20208;-68
2022/03/17 06:42:02;;;;;;;61.50;43.03;;;6.20;99.90;;;;;;5013189;28;20642;-68
2022/03/17 06:44:27;;;;;;;63.73;43.63;;;6.20;99.90;;;;;;5021491;28;20230;-69
2022/03/17 06:46:53;;;;;;;73.40;45.80;;;6.30;99.90;;;;;;5011133;28;20506;-67
2022/03/17 06:49:18;;;;;;;69.63;43.93;;;6.40;99.90;;;;;;5017509;28;20231;-67
2022/03/17 06:51:44;;;;;;;64.40;44.83;;;6.40;99.90;;;;;;5022800;28;20206;-68
2022/03/17 06:54:09;;;;;;;69.03;45.83;;;6.50;99.90;;;;;;5005797;28;20208;-67
2022/03/17 06:56:35;;;;;;;68.10;46.40;;;6.50;99.90;;;;;;5020888;28;20304;-68
2022/03/17 06:59:00;;;;;;;73.93;44.70;;;6.70;99.90;;;;;;5016404;28;20556;-68
2022/03/17 07:01:25;;;;;;;68.27;44.40;;;6.70;99.90;;;;;;5011667;28;20302;-69
2022/03/17 07:03:51;;;;;;;67.63;45.97;;;6.60;99.90;;;;;;5013331;28;20713;-71
2022/03/17 07:06:16;;;;;;;70.30;46.87;;;6.80;99.90;;;;;;5017365;28;20266;-71
2022/03/17 07:08:42;;;;;;;71.50;46.40;;;6.80;99.90;;;;;;5016596;28;20197;-71
2022/03/17 07:11:07;;;;;;;77.40;50.53;;;6.80;99.90;;;;;;5021384;28;20183;-71
2022/03/17 07:13:33;;;;;;;73.47;46.93;;;6.80;99.90;;;;;;5020445;28;20184;-70
2022/03/17 07:15:58;;;;;;;79.20;51.07;;;6.90;99.90;;;;;;5016511;28;20218;-69
2022/03/17 07:18:24;;;;;;;69.53;46.23;;;6.90;99.90;;;;;;5019043;28;20195;-69
2022/03/17 07:20:50;;;;;;;75.67;47.80;;;7.00;99.90;;;;;;5010512;28;20188;-69
2022/03/17 07:23:15;;;;;;;67.10;44.17;;;6.90;99.90;;;;;;5007897;28;20620;-68
2022/03/17 07:25:41;;;;;;;65.27;45.90;;;7.00;99.90;;;;;;5022439;28;20388;-69
2022/03/17 07:28:07;;;;;;;72.33;48.17;;;7.10;99.90;;;;;;5016777;28;20216;-69
2022/03/17 07:30:33;;;;;;;64.60;45.87;;;7.10;99.90;;;;;;5014705;28;20564;-69
2022/03/17 07:32:59;;;;;;;71.30;49.03;;;7.10;99.90;;;;;;5006357;28;20726;-69
2022/03/17 07:35:26;;;;;;;69.17;45.93;;;7.10;99.90;;;;;;5009194;28;20291;-70
2022/03/17 07:37:52;;;;;;;63.07;44.60;;;7.10;99.90;;;;;;5014724;28;20286;-69
2022/03/17 07:40:19;;;;;;;64.00;44.13;;;7.10;99.90;;;;;;5004834;28;20926;-69
2022/03/17 07:42:44;;;;;;;73.17;46.57;;;7.20;99.90;;;;;;5013597;28;20203;-69
2022/03/17 07:45:11;;;;;;;69.63;45.50;;;7.20;99.90;;;;;;5011086;28;20565;-69
2022/03/17 07:47:44;;;;;;;65.40;44.53;;;7.30;99.90;;;;;;5016481;28;20196;-70
2022/03/17 07:50:10;;;;;;;67.97;46.70;;;7.30;99.90;;;;;;5005818;28;20207;-69
2022/03/17 07:52:35;;;;;;;66.87;45.67;;;7.30;99.90;;;;;;5020878;28;20200;-68
2022/03/17 07:55:01;;;;;;;69.60;44.63;;;7.20;99.90;;;;;;5010969;28;20195;-70
2022/03/17 07:57:26;;;;;;;69.90;45.87;;;7.30;99.90;;;;;;5024144;28;20655;-68
2022/03/17 07:59:52;;;;;;;66.30;45.77;;;7.20;99.90;;;;;;5020141;28;20207;-67
2022/03/17 08:02:19;;;;;;;68.53;45.33;;;7.10;99.90;;;;;;5013286;28;20195;-67
2022/03/17 08:04:48;;;;;;;71.43;47.80;;;7.20;99.90;;;;;;5004179;28;20211;-78
2022/03/17 08:07:13;;;;;;;69.17;45.20;;;7.20;99.90;;;;;;5021605;28;20203;-65
2022/03/17 08:09:39;;;;;;;65.23;42.70;;;7.30;99.90;;;;;;5013950;28;20285;-67
2022/03/17 08:12:05;;;;;;;70.90;45.03;;;7.30;99.90;;;;;;5016133;28;20191;-69
2022/03/17 08:14:31;;;;;;;66.60;45.20;;;7.40;99.90;;;;;;5014568;28;20210;-65
2022/03/17 08:16:56;;;;;;;63.20;45.37;;;7.50;99.90;;;;;;5014886;28;20188;-71
2022/03/17 08:19:22;;;;;;;73.83;47.37;;;7.40;99.90;;;;;;5013328;28;20206;-68
2022/03/17 08:21:47;;;;;;;61.17;43.63;;;7.50;99.90;;;;;;5013333;28;20645;-69
2022/03/17 08:24:13;;;;;;;66.27;42.80;;;7.50;99.90;;;;;;5012213;28;20215;-68
2022/03/17 08:26:39;;;;;;;68.47;43.60;;;7.60;99.90;;;;;;5019451;28;20305;-71
2022/03/17 08:29:05;;;;;;;62.20;43.67;;;7.60;99.90;;;;;;5020023;28;20557;-69
2022/03/17 08:31:31;;;;;;;68.37;43.23;;;7.70;99.90;;;;;;5015547;28;20199;-68
2022/03/17 08:33:56;;;;;;;63.70;43.90;;;7.90;99.90;;;;;;5022302;28;20195;-69
2022/03/17 08:36:25;;;;;;;61.43;44.83;;;7.80;99.90;;;;;;5011887;28;20219;-70
2022/03/17 08:38:52;;;;;;;63.73;43.40;;;7.90;99.90;;;;;;5017329;28;20203;-68
2022/03/17 08:41:18;;;;;;;65.27;43.10;;;8.00;99.90;;;;;;5014769;28;20208;-68
2022/03/17 08:43:43;;;;;;;68.47;45.47;;;8.00;99.90;;;;;;5015957;28;20345;-67
2022/03/17 08:51:37;;;;;;;74.10;45.23;;;8.00;99.90;;;;;;5017621;28;20773;-69
2022/03/17 08:54:03;;;;;;;60.07;44.07;;;8.00;99.90;;;;;;5017849;28;20196;-69
2022/03/17 08:56:29;;;;;;;63.90;44.23;;;8.00;99.90;;;;;;5019246;28;20220;-69
2022/03/17 08:58:55;;;;;;;62.33;43.87;;;8.10;99.90;;;;;;5013952;28;20281;-68
2022/03/17 09:01:20;;;;;;;64.63;44.27;;;8.20;99.90;;;;;;5014903;28;20212;-68
2022/03/17 09:03:46;;;;;;;62.87;44.63;;;8.20;99.90;;;;;;5016366;28;20566;-70
2022/03/17 09:06:12;;;;;;;63.10;43.77;;;8.30;99.90;;;;;;5014532;28;20246;-70
2022/03/17 09:08:41;;;;;;;64.67;43.83;;;8.30;99.90;;;;;;5007436;28;20212;-70
2022/03/17 09:11:07;;;;;;;67.23;42.93;;;8.20;99.90;;;;;;5003045;28;20209;-69
2022/03/17 09:13:33;;;;;;;58.93;42.37;;;8.30;99.90;;;;;;5015011;28;20556;-69
2022/03/17 09:15:58;;;;;;;55.87;40.73;;;8.30;99.90;;;;;;5003530;28;20220;-69
2022/03/17 09:18:24;;;;;;;59.33;42.73;;;8.30;99.90;;;;;;5017834;28;20199;-69
2022/03/17 09:20:50;;;;;;;63.73;43.87;;;8.30;99.90;;;;;;5019124;28;20300;-70
2022/03/17 09:23:16;;;;;;;71.17;42.93;;;8.30;99.90;;;;;;5012082;28;20357;-70
2022/03/17 09:25:42;;;;;;;60.40;44.27;;;8.40;99.90;;;;;;5008899;28;20226;-70
2022/03/17 09:28:08;;;;;;;58.13;42.47;;;8.40;99.90;;;;;;5015607;28;20197;-69
2022/03/17 09:30:34;;;;;;;61.63;42.27;;;8.40;99.90;;;;;;5020063;28;20195;-69
2022/03/17 09:33:01;;;;;;;60.53;41.17;;;8.50;99.90;;;;;;5011902;28;20257;-69
2022/03/17 09:35:27;;;;;;;61.63;40.33;;;8.50;99.90;;;;;;5011788;28;20286;-69
2022/03/17 09:37:53;;;;;;;58.90;40.47;;;8.60;99.90;;;;;;5015142;28;20192;-70
2022/03/17 09:40:19;;;;;;;58.13;40.77;;;8.70;99.90;;;;;;5016352;28;20257;-70
2022/03/17 09:42:44;;;;;;;62.60;42.37;;;8.70;99.90;;;;;;5027825;28;20975;-70
2022/03/17 09:45:11;;;;;;;60.47;41.30;;;8.80;99.90;;;;;;5017270;28;20626;-70
2022/03/17 09:47:42;;;;;;;60.23;41.50;;;8.90;99.90;;;;;;5021629;28;20188;-69
2022/03/17 09:50:10;;;;;;;59.30;41.97;;;9.00;99.90;;;;;;5016213;28;20216;-70
2022/03/17 09:52:39;;;;;;;58.10;40.27;;;8.90;99.90;;;;;;5018248;28;20287;-69
2022/03/17 09:55:07;;;;;;;55.43;39.30;;;8.80;99.90;;;;;;5022029;28;20211;-70
2022/03/17 09:57:33;;;;;;;57.07;40.50;;;8.80;99.90;;;;;;5022957;28;20255;-70
2022/03/17 09:59:58;;;;;;;56.03;41.33;;;9.00;99.90;;;;;;5017634;28;20559;-68
2022/03/17 10:02:25;;;;;;;60.23;41.93;;;9.00;99.90;;;;;;5020469;28;20291;-69
2022/03/17 10:04:51;;;;;;;51.73;38.20;;;8.90;99.90;;;;;;5011960;28;20278;-69
2022/03/17 10:07:19;;;;;;;55.83;41.27;;;9.00;99.90;;;;;;5016973;28;20215;-68
2022/03/17 10:09:45;;;;;;;54.17;39.70;;;8.90;99.90;;;;;;5018815;28;20571;-68
2022/03/17 10:12:13;;;;;;;59.67;41.40;;;9.00;99.90;;;;;;5009029;28;20631;-69
2022/03/17 10:14:41;;;;;;;52.93;40.47;;;9.20;99.90;;;;;;5014430;28;20197;-69
2022/03/17 10:17:33;;;;;;;61.33;42.37;;;9.30;99.90;;;;;;5007940;28;20667;-69
2022/03/17 10:20:17;;;;;;;51.13;39.10;;;9.30;99.90;;;;;;5011028;28;20648;-69
2022/03/17 10:22:46;;;;;;;51.17;39.67;;;9.30;99.90;;;;;;5018661;28;20260;-69
2022/03/17 10:25:13;;;;;;;56.47;39.23;;;9.20;99.90;;;;;;5007372;28;20738;-69
2022/03/17 10:27:40;;;;;;;52.97;40.03;;;9.30;99.90;;;;;;5013665;28;20195;-70
2022/03/17 10:30:06;;;;;;;55.07;38.50;;;9.40;99.90;;;;;;5015838;28;20195;-70
2022/03/17 10:32:32;;;;;;;61.37;40.37;;;9.50;99.90;;;;;;5017027;28;20283;-70
2022/03/17 10:34:58;;;;;;;54.07;38.63;;;9.60;99.90;;;;;;5023877;28;20711;-69
2022/03/17 10:37:25;;;;;;;51.20;39.10;;;9.70;99.90;;;;;;5018004;28;20215;-70
2022/03/17 10:39:53;;;;;;;56.77;40.23;;;9.70;99.90;;;;;;5019505;28;20196;-69
2022/03/17 10:42:24;;;;;;;52.57;39.23;;;9.70;99.90;;;;;;5014457;28;20224;-69
2022/03/17 10:45:05;;;;;;;54.93;39.43;;;9.70;99.90;;;;;;5018779;28;20200;-70
2022/03/17 10:47:34;;;;;;;51.87;39.23;;;9.70;99.90;;;;;;5016587;28;20225;-70
2022/03/17 10:50:04;;;;;;;50.13;37.77;;;9.80;99.90;;;;;;5021382;28;20201;-70
2022/03/17 10:52:50;;;;;;;54.67;38.47;;;9.90;99.90;;;;;;5015368;28;20208;-70
2022/03/17 10:55:23;;;;;;;53.90;38.27;;;10.00;99.90;;;;;;5005521;28;20211;-70
2022/03/17 10:57:50;;;;;;;50.03;36.67;;;10.00;99.90;;;;;;5013334;28;20288;-69
2022/03/17 11:00:21;;;;;;;49.33;37.57;;;10.00;99.90;;;;;;5018093;28;20192;-70
2022/03/17 11:02:49;;;;;;;47.47;35.30;;;10.10;99.90;;;;;;5013069;28;20715;-72
2022/03/17 11:05:19;;;;;;;58.97;37.80;;;10.10;99.90;;;;;;5014651;28;20744;-73
2022/03/17 11:07:48;;;;;;;53.20;37.63;;;10.10;99.90;;;;;;5015761;28;20205;-73
2022/03/17 11:10:20;;;;;;;54.83;37.83;;;10.20;99.90;;;;;;5017024;28;20703;-72
2022/03/17 11:12:46;;;;;;;48.73;37.33;;;10.40;99.90;;;;;;5018071;28;20617;-73
2022/03/17 11:15:12;;;;;;;50.87;37.37;;;10.40;99.90;;;;;;5014186;28;20228;-71
2022/03/17 11:17:47;;;;;;;58.03;39.37;;;10.40;99.90;;;;;;5025864;28;20230;-70
2022/03/17 11:20:18;;;;;;;48.57;37.80;;;10.50;99.90;;;;;;5013243;28;20204;-72
2022/03/17 11:23:02;;;;;;;51.63;37.40;;;10.60;99.90;;;;;;5006702;28;20655;-69
2022/03/17 11:25:34;;;;;;;52.40;36.57;;;10.70;99.90;;;;;;5017537;28;20256;-72
2022/03/17 11:28:01;;;;;;;50.07;35.50;;;10.70;99.90;;;;;;5026260;28;20165;-70
2022/03/17 11:30:31;;;;;;;46.67;35.70;;;10.60;99.90;;;;;;5011225;28;20225;-70
2022/03/17 11:32:58;;;;;;;51.20;37.03;;;10.50;99.90;;;;;;5006005;28;20279;-70
2022/03/17 11:35:28;;;;;;;49.13;33.00;;;10.70;99.90;;;;;;5016818;28;20228;-70
2022/03/17 11:38:14;;;;;;;55.03;36.77;;;10.70;99.90;;;;;;5026111;28;20201;-67
2022/03/17 11:41:13;;;;;;;48.43;36.90;;;11.00;99.80;;;;;;5009549;28;20214;-64
2022/03/17 11:43:39;;;;;;;45.50;33.23;;;10.90;99.60;;;;;;5006285;28;20220;-63
2022/03/17 11:46:09;;;;;;;47.53;33.37;;;10.90;99.70;;;;;;5022330;28;20280;-63
2022/03/17 11:48:36;;;;;;;53.73;35.93;;;11.10;99.40;;;;;;5016801;28;20188;-64
2022/03/17 11:51:07;;;;;;;46.23;33.33;;;11.20;99.00;;;;;;5015643;28;20196;-64
2022/03/17 11:53:52;;;;;;;51.37;34.33;;;11.20;98.70;;;;;;5015307;28;20226;-64
2022/03/17 11:56:30;;;;;;;42.27;31.77;;;11.30;98.90;;;;;;5016350;28;20198;-65
2022/03/17 11:58:56;;;;;;;41.70;31.97;;;11.20;98.80;;;;;;5014741;28;20178;-64
2022/03/17 12:01:30;;;;;;;50.13;33.00;;;11.10;98.60;;;;;;5017508;28;20186;-63
2022/03/17 12:04:04;;;;;;;44.17;33.47;;;11.10;98.70;;;;;;5014621;28;20205;-64
2022/03/17 12:06:37;;;;;;;47.80;32.50;;;11.20;98.80;;;;;;5012231;28;20186;-66
2022/03/17 12:09:10;;;;;;;41.10;30.97;;;11.30;98.30;;;;;;5005422;28;20810;-68
2022/03/17 12:11:50;;;;;;;44.03;31.63;;;11.30;98.40;;;;;;5016284;28;20179;-64
2022/03/17 12:14:22;;;;;;;44.50;33.13;;;11.60;97.90;;;;;;5006974;28;20200;-66
2022/03/17 12:17:03;;;;;;;45.63;33.23;;;11.60;97.90;;;;;;5017919;28;20204;-66
2022/03/17 12:19:48;;;;;;;41.27;30.87;;;11.50;97.90;;;;;;5008644;28;20205;-64
2022/03/17 12:22:19;;;;;;;46.87;31.30;;;11.40;97.50;;;;;;5010444;28;20196;-65
2022/03/17 12:24:59;;;;;;;40.23;31.73;;;11.30;97.60;;;;;;5005818;28;20594;-65
2022/03/17 12:27:32;;;;;;;46.63;34.30;;;11.30;97.30;;;;;;5017639;28;20196;-74
2022/03/17 12:30:07;;;;;;;39.90;32.00;;;11.30;97.40;;;;;;4997299;28;20886;-73
2022/03/17 12:32:38;;;;;;;40.03;30.77;;;11.30;97.60;;;;;;5011781;28;20197;-66
2022/03/17 12:35:06;;;;;;;46.80;33.77;;;11.50;97.30;;;;;;5017987;28;20293;-66
2022/03/17 12:37:34;;;;;;;41.27;31.13;;;11.50;96.80;;;;;;5014201;28;20593;-66
2022/03/17 12:40:01;;;;;;;42.33;30.80;;;11.40;97.10;;;;;;5003895;28;20226;-64
2022/03/17 12:42:29;;;;;;;40.00;31.40;;;11.40;97.10;;;;;;5008031;28;20287;-64
2022/03/17 12:45:16;;;;;;;39.00;31.20;;;11.40;97.10;;;;;;5014028;28;20232;-63
2022/03/17 12:47:46;;;;;;;40.30;31.17;;;11.40;97.10;;;;;;5011460;28;20203;-63
2022/03/17 12:50:18;;;;;;;40.13;31.07;;;11.40;96.90;;;;;;5010134;28;20201;-63